Time;durP1;ratioP1;P1;durP2;ratioP2;P2;SDS_P1;SDS_P2;PMS_P1;PMS_P2;Temp;Humidity;BMP_temperature;BMP_pressure;BME280_temperature;BME280_humidity;BME280_pressure;Samples;Min_cycle;Max_cycle;Signal;HPM_P1;HPM_P2
2023/06/30 00:01:54;;;;;;;6.53;5.38;;;;;;;21.88;62.91;97797.81;5068371;28;20081;-74
2023/06/30 00:04:22;;;;;;;5.60;5.00;;;;;;;21.81;62.87;97800.22;5049725;28;20048;-74
2023/06/30 00:06:50;;;;;;;6.20;5.22;;;;;;;21.98;62.07;97800.19;5068248;28;20020;-74
2023/06/30 00:09:19;;;;;;;6.47;5.78;;;;;;;22.01;62.23;97809.72;5070082;28;20035;-74
2023/06/30 00:11:47;;;;;;;6.35;5.32;;;;;;;21.87;62.58;97804.44;5069742;28;20070;-72
2023/06/30 00:14:13;;;;;;;6.32;5.05;;;;;;;21.90;62.56;97800.22;5056847;28;20044;-74
2023/06/30 00:16:39;;;;;;;6.93;5.35;;;;;;;22.14;61.71;97796.94;5069961;28;20021;-73
2023/06/30 00:19:04;;;;;;;8.13;5.57;;;;;;;22.41;60.71;97804.72;5058716;28;20572;-75
2023/06/30 00:21:30;;;;;;;6.75;5.43;;;;;;;22.05;62.20;97798.91;5033949;28;20025;-75
2023/06/30 00:24:04;;;;;;;6.20;5.10;;;;;;;22.00;61.97;97797.16;5050240;28;20037;-74
2023/06/30 00:26:30;;;;;;;6.47;5.65;;;;;;;21.92;62.19;97796.03;5058758;28;20024;-73
2023/06/30 00:28:56;;;;;;;6.60;5.50;;;;;;;21.92;62.11;97796.03;5070227;28;20028;-72
2023/06/30 00:31:22;;;;;;;7.72;5.18;;;;;;;21.73;62.79;97792.81;5046367;28;20123;-73
2023/06/30 00:33:47;;;;;;;5.90;5.30;;;;;;;21.66;63.21;97787.03;5063797;28;20108;-73
2023/06/30 00:36:15;;;;;;;5.97;5.38;;;;;;;21.67;62.46;97787.84;5050002;28;20029;-74
2023/06/30 00:38:40;;;;;;;6.75;5.18;;;;;;;21.85;61.78;97779.28;5081229;28;20032;-75
2023/06/30 00:41:06;;;;;;;6.05;5.45;;;;;;;21.71;62.38;97784.13;5066775;28;20111;-74
2023/06/30 00:43:32;;;;;;;9.60;5.88;;;;;;;21.16;64.08;97777.75;5043317;28;20120;-74
2023/06/30 00:45:57;;;;;;;8.82;5.38;;;;;;;20.83;65.63;97773.84;5069573;28;20036;-74
2023/06/30 00:48:23;;;;;;;6.95;6.03;;;;;;;20.51;66.74;97780.56;5037073;28;20033;-74
2023/06/30 00:50:49;;;;;;;7.70;6.13;;;;;;;20.61;66.72;97778.31;5056735;28;20048;-74
2023/06/30 00:53:15;;;;;;;9.43;6.07;;;;;;;20.21;68.03;97779.47;5057045;28;20418;-75
2023/06/30 00:55:44;;;;;;;6.30;5.68;;;;;;;20.24;68.08;97769.88;5060136;28;20037;-74
2023/06/30 00:58:11;;;;;;;7.45;6.15;;;;;;;20.75;66.28;97750.81;5038100;28;20441;-74
2023/06/30 01:00:36;;;;;;;9.10;5.55;;;;;;;21.18;64.70;97748.13;5056745;28;20075;-74
2023/06/30 01:03:27;;;;;;;7.22;5.53;;;;;;;21.34;64.47;97749.22;5056732;28;20024;-75
2023/06/30 01:06:00;;;;;;;8.90;6.05;;;;;;;21.18;64.51;97753.59;5043730;28;20441;-75
2023/06/30 01:08:40;;;;;;;7.57;6.13;;;;;;;21.03;65.06;97756.78;5067239;28;20050;-75
2023/06/30 01:11:06;;;;;;;8.20;5.65;;;;;;;21.04;64.77;97755.66;5054021;28;20071;-75
2023/06/30 01:13:32;;;;;;;7.60;6.10;;;;;;;20.62;65.81;97752.59;5065137;28;20463;-75
2023/06/30 01:15:58;;;;;;;6.30;5.70;;;;;;;20.31;67.28;97748.31;5063156;28;20452;-74
2023/06/30 01:18:24;;;;;;;8.38;6.28;;;;;;;20.09;68.16;97749.22;5057089;28;20449;-75
2023/06/30 01:20:51;;;;;;;7.95;6.13;;;;;;;20.02;68.96;97743.41;5053420;28;20449;-73
2023/06/30 01:23:35;;;;;;;7.15;6.45;;;;;;;20.06;69.13;97738.91;5069727;28;21357;-72
2023/06/30 01:26:01;;;;;;;8.50;6.97;;;;;;;19.85;70.08;97755.06;5044440;28;20063;-73
2023/06/30 01:28:27;;;;;;;7.15;6.45;;;;;;;20.04;68.92;97754.81;5052890;28;20059;-72
2023/06/30 01:30:54;;;;;;;10.10;7.00;;;;;;;20.18;68.68;97763.72;5053169;28;20448;-74
2023/06/30 01:33:21;;;;;;;9.10;7.18;;;;;;;20.35;67.64;97758.31;5034953;28;20056;-75
2023/06/30 01:35:48;;;;;;;9.82;7.05;;;;;;;20.50;67.63;97748.84;5044278;28;20061;-75
2023/06/30 01:38:14;;;;;;;8.25;6.32;;;;;;;20.68;66.72;97751.28;5074889;28;20040;-76
2023/06/30 01:40:39;;;;;;;7.28;6.55;;;;;;;20.81;65.83;97748.72;5064835;28;20040;-74
2023/06/30 01:43:05;;;;;;;7.68;6.72;;;;;;;20.61;66.92;97756.44;5054540;28;20495;-74
2023/06/30 01:45:34;;;;;;;7.93;7.13;;;;;;;20.70;66.71;97753.69;5047594;28;20119;-73
2023/06/30 01:48:00;;;;;;;8.05;6.40;;;;;;;20.78;66.09;97743.91;5056406;28;20170;-73
2023/06/30 01:50:29;;;;;;;8.32;6.40;;;;;;;20.95;65.88;97743.91;5036318;28;20068;-74
2023/06/30 01:52:56;;;;;;;8.60;6.75;;;;;;;20.80;66.34;97736.97;5052491;28;20028;-74
2023/06/30 01:55:22;;;;;;;7.15;6.28;;;;;;;20.60;66.72;97741.16;5053810;28;20060;-72
2023/06/30 01:57:47;;;;;;;7.80;6.57;;;;;;;20.76;66.35;97740.69;5053177;28;20108;-74
2023/06/30 02:00:13;;;;;;;7.72;6.30;;;;;;;20.78;66.20;97735.69;5054243;28;20032;-74
2023/06/30 02:02:39;;;;;;;7.93;7.13;;;;;;;20.82;66.12;97733.94;5066249;28;20044;-73
2023/06/30 02:05:07;;;;;;;9.43;7.35;;;;;;;20.37;67.49;97741.59;5053763;28;20082;-73
2023/06/30 02:07:35;;;;;;;9.70;7.05;;;;;;;19.88;69.42;97742.69;5057066;28;20032;-73
2023/06/30 02:10:01;;;;;;;11.10;7.40;;;;;;;20.04;68.98;97734.88;5072625;28;20595;-73
2023/06/30 02:12:27;;;;;;;7.25;6.55;;;;;;;20.38;67.26;97729.50;5042761;28;20020;-74
2023/06/30 02:14:53;;;;;;;7.97;6.38;;;;;;;20.39;67.22;97736.63;5046080;28;20071;-76
2023/06/30 02:17:31;;;;;;;8.50;6.82;;;;;;;20.14;68.34;97735.38;5052456;28;20021;-74
2023/06/30 02:19:57;;;;;;;7.50;6.65;;;;;;;19.70;69.58;97730.88;5063571;28;20111;-72
2023/06/30 02:22:22;;;;;;;7.78;6.97;;;;;;;19.60;70.15;97736.63;5055236;28;20063;-75
2023/06/30 02:24:48;;;;;;;7.70;6.18;;;;;;;20.03;68.72;97728.59;5063225;28;20111;-72
2023/06/30 02:27:16;;;;;;;7.65;6.93;;;;;;;19.79;69.19;97730.94;5055295;28;20024;-72
2023/06/30 02:29:42;;;;;;;8.65;6.65;;;;;;;19.48;70.41;97732.84;5054890;28;20032;-72
2023/06/30 02:32:07;;;;;;;9.02;7.45;;;;;;;19.27;71.37;97738.00;5052939;28;20394;-72
2023/06/30 02:34:33;;;;;;;7.65;6.95;;;;;;;18.68;74.00;97749.25;5034787;28;20037;-72
2023/06/30 02:37:00;;;;;;;9.95;8.02;;;;;;;18.80;73.86;97750.31;5069784;28;20033;-71
2023/06/30 02:39:26;;;;;;;9.00;8.07;;;;;;;18.97;72.75;97753.22;5071516;28;20146;-73
2023/06/30 02:41:53;;;;;;;9.45;7.70;;;;;;;19.42;70.93;97745.81;5055270;28;20028;-72
2023/06/30 02:44:19;;;;;;;7.82;7.03;;;;;;;19.92;69.51;97749.13;5071190;28;20060;-73
2023/06/30 02:46:45;;;;;;;12.13;7.22;;;;;;;19.93;68.88;97739.81;5054673;28;20498;-74
2023/06/30 02:49:10;;;;;;;10.85;7.32;;;;;;;20.17;68.18;97745.69;5071467;28;20044;-74
2023/06/30 02:51:36;;;;;;;8.50;7.07;;;;;;;20.09;68.58;97749.22;5053078;28;20017;-73
2023/06/30 02:54:01;;;;;;;9.77;7.22;;;;;;;20.06;68.51;97746.28;5062764;28;20059;-72
2023/06/30 02:56:27;;;;;;;7.38;6.68;;;;;;;20.20;68.05;97745.06;5054559;28;20024;-73
2023/06/30 02:58:53;;;;;;;8.07;6.43;;;;;;;20.12;68.13;97751.28;5054680;28;20032;-72
2023/06/30 03:01:21;;;;;;;8.32;7.00;;;;;;;20.19;67.74;97754.38;5054410;28;20493;-73
2023/06/30 03:03:47;;;;;;;7.70;6.75;;;;;;;20.20;67.97;97750.53;5070932;28;20036;-72
2023/06/30 03:06:13;;;;;;;7.97;7.18;;;;;;;20.08;68.35;97736.66;5054356;28;20016;-73
2023/06/30 03:08:39;;;;;;;8.68;6.97;;;;;;;20.29;67.16;97740.44;5053860;28;20512;-73
2023/06/30 03:11:04;;;;;;;8.52;6.65;;;;;;;20.08;67.67;97725.72;5053981;28;20052;-73
2023/06/30 03:13:30;;;;;;;8.10;7.00;;;;;;;20.32;67.08;97737.09;5053919;28;20074;-72
2023/06/30 03:15:56;;;;;;;8.15;7.07;;;;;;;20.04;68.42;97723.94;5040781;28;20020;-73
2023/06/30 03:18:22;;;;;;;7.47;6.40;;;;;;;20.26;67.47;97721.94;5070995;28;20036;-73
2023/06/30 03:20:49;;;;;;;9.95;7.32;;;;;;;20.06;68.36;97722.50;5053482;28;20103;-73
2023/06/30 03:23:14;;;;;;;8.35;7.53;;;;;;;20.42;66.85;97725.81;5050773;28;20113;-72
2023/06/30 03:25:40;;;;;;;9.45;6.72;;;;;;;20.29;67.48;97715.84;5034132;28;20495;-72
2023/06/30 03:28:06;;;;;;;8.70;7.30;;;;;;;20.19;67.82;97732.50;5054312;28;20065;-73
2023/06/30 03:30:31;;;;;;;9.10;6.88;;;;;;;19.98;68.66;97726.00;5052332;28;20024;-72
2023/06/30 03:32:56;;;;;;;7.53;6.72;;;;;;;20.45;67.05;97719.72;5033998;28;20111;-71
2023/06/30 03:35:22;;;;;;;9.25;7.50;;;;;;;20.56;66.41;97715.53;5050365;28;20025;-72
2023/06/30 03:37:47;;;;;;;7.32;5.95;;;;;;;20.59;66.70;97714.09;5062474;28;20435;-72
2023/06/30 03:40:13;;;;;;;7.60;6.80;;;;;;;20.67;66.53;97718.78;5071847;28;20020;-71
2023/06/30 03:42:38;;;;;;;7.45;6.25;;;;;;;20.59;66.74;97714.91;5050152;28;20044;-71
2023/06/30 03:45:04;;;;;;;8.02;6.63;;;;;;;20.31;68.17;97708.09;5035357;28;20029;-71
2023/06/30 03:47:32;;;;;;;7.53;6.53;;;;;;;20.20;67.87;97705.97;5050474;28;20025;-71
2023/06/30 03:49:57;;;;;;;6.70;5.80;;;;;;;20.44;67.08;97695.44;5071575;28;20074;-73
2023/06/30 03:52:22;;;;;;;9.75;7.05;;;;;;;19.71;69.54;97694.25;5058599;28;20540;-74
2023/06/30 03:54:48;;;;;;;7.00;6.30;;;;;;;19.28;70.89;97701.38;5017091;28;20025;-74
2023/06/30 03:57:14;;;;;;;8.32;6.68;;;;;;;19.25;71.52;97697.34;5045607;28;20090;-74
2023/06/30 03:59:39;;;;;;;7.55;6.70;;;;;;;19.68;70.08;97696.78;5050263;28;20021;-75
2023/06/30 04:02:05;;;;;;;12.02;7.25;;;;;;;19.53;70.49;97691.75;5063017;28;20037;-75
2023/06/30 04:04:30;;;;;;;8.27;6.90;;;;;;;19.64;70.28;97695.81;5048699;28;20705;-75
2023/06/30 04:06:56;;;;;;;7.30;6.60;;;;;;;19.80;69.78;97695.06;5045046;28;20040;-75
2023/06/30 04:09:21;;;;;;;8.50;6.47;;;;;;;19.65;70.44;97694.69;5036158;28;20437;-75
2023/06/30 04:11:48;;;;;;;8.75;6.82;;;;;;;19.41;71.81;97694.25;5053835;28;20037;-75
2023/06/30 04:14:14;;;;;;;10.13;6.63;;;;;;;19.46;71.85;97697.66;5069750;28;20032;-75
2023/06/30 04:16:39;;;;;;;9.15;6.25;;;;;;;19.76;69.80;97691.38;5058824;28;20063;-74
2023/06/30 04:19:04;;;;;;;9.77;6.55;;;;;;;19.92;69.60;97686.28;5051082;28;20462;-74
2023/06/30 04:21:30;;;;;;;6.25;4.78;;;;;;;20.12;69.30;97690.34;5055615;28;20115;-73
2023/06/30 04:23:55;;;;;;;7.93;6.72;;;;;;;19.82;69.78;97692.00;5055864;28;20471;-74
2023/06/30 04:26:20;;;;;;;7.50;6.50;;;;;;;19.39;71.75;97691.03;5064753;28;20116;-73
2023/06/30 04:28:46;;;;;;;8.05;6.70;;;;;;;19.56;71.40;97696.56;5056050;28;20021;-73
2023/06/30 04:31:11;;;;;;;7.85;6.47;;;;;;;20.12;69.70;97704.81;5054948;28;20048;-74
2023/06/30 04:33:36;;;;;;;8.13;6.47;;;;;;;20.39;68.34;97704.59;5058847;28;20027;-74
2023/06/30 04:36:03;;;;;;;8.80;6.65;;;;;;;19.99;69.73;97701.09;5062739;28;20037;-74
2023/06/30 04:38:28;;;;;;;10.27;7.18;;;;;;;19.80;70.25;97707.94;5070965;28;20031;-75
2023/06/30 04:40:54;;;;;;;8.35;6.90;;;;;;;19.56;71.18;97707.50;5073444;28;20036;-74
2023/06/30 04:43:19;;;;;;;9.80;6.68;;;;;;;19.67;71.01;97703.38;5074465;28;20115;-75
2023/06/30 04:45:45;;;;;;;7.82;6.63;;;;;;;19.70;70.70;97703.53;5073427;28;20025;-74
2023/06/30 04:48:10;;;;;;;10.63;7.15;;;;;;;19.79;70.45;97707.13;5056557;28;20419;-74
2023/06/30 04:50:36;;;;;;;6.93;4.63;;;;;;;20.05;69.96;97709.94;5056514;28;20043;-74
2023/06/30 04:53:01;;;;;;;10.45;5.65;;;;;;;20.12;69.07;97713.00;5055958;28;20434;-74
2023/06/30 04:55:26;;;;;;;9.48;5.47;;;;;;;20.11;68.71;97707.88;5053243;28;20036;-74
2023/06/30 04:57:56;;;;;;;6.43;4.32;;;;;;;20.47;68.26;97712.00;5039600;28;20032;-73
2023/06/30 05:00:24;;;;;;;6.55;4.70;;;;;;;20.79;67.03;97697.06;5073227;28;20036;-74
2023/06/30 05:02:50;;;;;;;7.82;4.45;;;;;;;20.83;67.35;97697.22;5059287;28;20482;-75
2023/06/30 05:05:15;;;;;;;11.77;4.55;;;;;;;21.31;65.73;97700.56;5049551;28;20040;-76
2023/06/30 05:07:41;;;;;;;8.73;4.93;;;;;;;21.48;64.74;97692.28;5052162;28;20099;-74
2023/06/30 05:10:08;;;;;;;5.25;4.32;;;;;;;21.54;64.79;97696.47;5073123;28;20086;-75
2023/06/30 05:12:33;;;;;;;7.05;3.70;;;;;;;21.53;64.76;97692.13;5068821;28;20056;-74
2023/06/30 05:14:59;;;;;;;7.10;3.60;;;;;;;21.57;64.72;97689.53;5047021;28;20529;-74
2023/06/30 05:17:24;;;;;;;9.70;4.38;;;;;;;21.87;63.61;97682.97;5068889;28;20383;-76
2023/06/30 05:19:49;;;;;;;8.15;3.90;;;;;;;21.49;65.23;97693.09;5063740;28;20051;-75
2023/06/30 05:22:15;;;;;;;5.03;4.30;;;;;;;20.62;70.33;97695.13;5059373;28;20021;-73
2023/06/30 05:24:40;;;;;;;9.57;4.85;;;;;;;20.04;72.30;97697.41;5045509;28;20052;-73
2023/06/30 05:27:06;;;;;;;618.58;98.28;;;;;;;19.86;72.53;97698.47;5069295;28;20108;-73
2023/06/30 05:29:32;;;;;;;11.30;10.20;;;;;;;19.86;72.35;97706.69;5035959;28;20033;-72
2023/06/30 05:31:57;;;;;;;9.30;8.32;;;;;;;20.06;71.60;97700.63;5052770;28;20675;-72
2023/06/30 05:34:23;;;;;;;11.55;9.50;;;;;;;20.16;70.75;97699.53;5052229;28;20028;-73
2023/06/30 05:36:48;;;;;;;14.50;10.18;;;;;;;20.40;70.36;97688.97;5035919;28;20071;-73
2023/06/30 05:39:14;;;;;;;9.05;8.15;;;;;;;20.57;69.32;97687.06;5046224;28;20032;-75
2023/06/30 05:41:40;;;;;;;10.48;8.50;;;;;;;20.87;68.82;97698.16;5052184;28;20456;-73
2023/06/30 05:44:09;;;;;;;11.00;9.93;;;;;;;20.95;67.71;97700.09;5062179;28;20223;-73
2023/06/30 05:46:37;;;;;;;13.40;10.55;;;;;;;21.26;67.99;97700.75;5068269;28;20017;-73
2023/06/30 05:49:05;;;;;;;11.02;9.98;;;;;;;21.08;66.77;97693.66;5052297;28;20099;-73
2023/06/30 05:51:33;;;;;;;11.73;10.00;;;;;;;21.05;66.57;97694.34;5053396;28;20053;-73
2023/06/30 05:53:59;;;;;;;12.40;9.82;;;;;;;21.32;65.67;97696.69;5051846;28;20028;-73
2023/06/30 05:56:24;;;;;;;13.32;9.68;;;;;;;21.35;65.83;97693.31;5050021;28;20483;-73
2023/06/30 05:58:50;;;;;;;11.38;10.18;;;;;;;21.21;66.45;97692.69;5067655;28;20041;-74
2023/06/30 06:01:16;;;;;;;12.60;10.32;;;;;;;21.45;65.63;97692.94;5051835;28;20025;-73
2023/06/30 06:03:41;;;;;;;11.32;9.48;;;;;;;21.39;65.43;97691.53;5043075;28;20044;-73
2023/06/30 06:06:07;;;;;;;12.05;10.27;;;;;;;21.87;64.49;97688.47;5068042;28;20040;-73
2023/06/30 06:08:32;;;;;;;11.25;10.07;;;;;;;21.53;65.17;97700.34;5064416;28;20384;-74
2023/06/30 06:10:57;;;;;;;10.52;9.52;;;;;;;21.85;64.15;97698.97;5053869;28;20035;-74
2023/06/30 06:13:37;;;;;;;11.73;9.38;;;;;;;22.29;63.40;97700.34;5052729;28;20517;-73
2023/06/30 06:16:03;;;;;;;12.85;9.20;;;;;;;22.23;63.74;97701.66;5057768;28;20040;-74
2023/06/30 06:18:28;;;;;;;11.20;9.50;;;;;;;22.55;61.87;97693.53;5071679;28;20074;-74
2023/06/30 06:20:55;;;;;;;11.45;10.00;;;;;;;22.58;61.78;97692.06;5073220;28;20040;-74
2023/06/30 06:23:20;;;;;;;10.30;9.25;;;;;;;22.16;63.57;97695.91;5055132;28;20112;-74
2023/06/30 06:25:50;;;;;;;11.52;8.73;;;;;;;22.46;62.31;97683.75;5075015;28;20068;-73
2023/06/30 06:28:16;;;;;;;14.93;12.85;;;;;;;22.29;62.10;97686.63;5054814;28;20086;-74
2023/06/30 06:30:42;;;;;;;12.23;11.13;;;;;;;22.76;60.95;97681.78;5041180;28;20821;-74
2023/06/30 06:33:07;;;;;;;12.80;11.50;;;;;;;22.17;62.60;97689.28;5071024;28;20441;-74
2023/06/30 06:35:33;;;;;;;9.88;8.95;;;;;;;23.36;60.09;97680.09;5065597;28;20029;-74
2023/06/30 06:37:59;;;;;;;10.98;9.80;;;;;;;22.47;62.14;97701.84;5064661;28;20036;-74
2023/06/30 06:40:24;;;;;;;12.02;10.85;;;;;;;21.88;63.64;97696.38;5057683;28;20024;-74
2023/06/30 06:42:50;;;;;;;12.75;11.52;;;;;;;22.12;63.73;97700.44;5057717;28;20118;-70
2023/06/30 06:45:20;;;;;;;13.70;12.30;;;;;;;22.30;62.07;97699.22;5041660;28;20024;-70
2023/06/30 06:48:16;;;;;;;11.50;10.50;;;;;;;22.73;61.16;97694.28;5057604;28;20075;-70
2023/06/30 06:50:42;;;;;;;10.35;8.60;;;;;;;22.82;61.45;97686.75;5062849;28;20048;-71
2023/06/30 06:53:08;;;;;;;11.45;8.30;;;;;;;22.67;61.02;97681.88;5066908;28;20029;-73
2023/06/30 06:55:33;;;;;;;14.77;13.57;;;;;;;23.04;60.43;97688.31;5050664;28;20123;-74
2023/06/30 06:57:59;;;;;;;12.77;11.57;;;;;;;23.11;60.49;97683.88;5069491;28;20059;-75
2023/06/30 07:00:24;;;;;;;14.52;13.27;;;;;;;22.88;60.61;97690.91;5050336;28;20044;-74
2023/06/30 07:02:51;;;;;;;9.43;7.78;;;;;;;22.72;60.76;97692.66;5062270;28;20025;-75
2023/06/30 07:05:16;;;;;;;8.55;7.10;;;;;;;23.27;58.41;97687.59;5060979;28;20033;-74
2023/06/30 07:07:42;;;;;;;10.18;7.93;;;;;;;23.67;58.11;97690.59;5050637;28;20036;-74
2023/06/30 07:10:08;;;;;;;10.02;7.85;;;;;;;24.28;56.57;97694.19;5060851;28;20550;-74
2023/06/30 07:12:33;;;;;;;10.57;7.68;;;;;;;24.31;56.39;97692.72;5050574;28;20029;-74
2023/06/30 07:14:59;;;;;;;11.10;8.15;;;;;;;23.53;58.41;97689.31;5050581;28;20033;-75
2023/06/30 07:17:24;;;;;;;10.93;9.40;;;;;;;23.80;58.69;97688.69;5067425;28;20032;-74
2023/06/30 07:19:49;;;;;;;122.45;17.17;;;;;;;24.12;57.52;97674.03;5060657;28;20178;-74
2023/06/30 07:22:15;;;;;;;328.85;156.00;;;;;;;24.96;55.06;97669.50;5063884;28;20033;-74
2023/06/30 07:24:40;;;;;;;202.27;46.72;;;;;;;24.77;55.47;97672.09;5060182;28;20063;-74
2023/06/30 07:27:06;;;;;;;9.60;8.05;;;;;;;24.54;55.66;97675.34;5057284;28;20020;-75
2023/06/30 07:29:31;;;;;;;9.07;8.05;;;;;;;25.27;54.33;97675.94;5060601;28;20033;-75
2023/06/30 07:31:56;;;;;;;11.15;7.20;;;;;;;25.38;53.30;97670.69;5063982;28;20036;-74
2023/06/30 07:34:23;;;;;;;8.88;7.82;;;;;;;25.12;52.79;97678.63;5050630;28;20035;-74
2023/06/30 07:36:50;;;;;;;8.60;7.35;;;;;;;25.16;54.23;97668.50;5068176;28;20735;-75
2023/06/30 07:39:16;;;;;;;8.55;6.47;;;;;;;25.38;53.19;97665.97;5050522;28;20457;-75
2023/06/30 07:41:41;;;;;;;8.50;7.60;;;;;;;24.52;56.28;97677.66;5050056;28;20060;-75
2023/06/30 07:44:09;;;;;;;10.70;8.05;;;;;;;24.28;57.89;97677.69;5043691;28;20040;-75
2023/06/30 07:46:34;;;;;;;10.88;7.72;;;;;;;24.53;55.36;97676.50;5052900;28;20386;-75
2023/06/30 07:48:59;;;;;;;10.10;7.82;;;;;;;24.73;55.47;97677.50;5051648;28;20037;-75
2023/06/30 07:51:25;;;;;;;9.68;7.25;;;;;;;24.61;56.19;97675.56;5069086;28;20029;-74
2023/06/30 07:53:50;;;;;;;8.05;6.97;;;;;;;24.43;56.56;97679.75;5052702;28;20078;-76
2023/06/30 07:56:16;;;;;;;9.68;7.38;;;;;;;24.35;56.72;97682.59;5068619;28;20547;-74
2023/06/30 07:58:41;;;;;;;10.07;6.70;;;;;;;24.37;54.92;97675.59;5063177;28;20044;-74
2023/06/30 08:01:07;;;;;;;7.35;6.18;;;;;;;24.15;54.31;97684.38;5060880;28;20028;-74
2023/06/30 08:03:33;;;;;;;7.85;6.47;;;;;;;24.54;54.16;97686.38;5074133;28;20406;-74
2023/06/30 08:05:58;;;;;;;8.90;6.93;;;;;;;24.63;55.50;97684.28;5072282;28;20025;-75
2023/06/30 08:08:24;;;;;;;8.55;6.40;;;;;;;24.55;54.08;97682.44;5054396;28;20463;-75
2023/06/30 08:10:49;;;;;;;8.38;6.40;;;;;;;24.67;52.10;97674.16;5053489;28;20033;-75
2023/06/30 08:13:15;;;;;;;10.20;6.47;;;;;;;24.72;52.28;97684.94;5047906;28;20509;-75
2023/06/30 08:15:41;;;;;;;7.13;6.20;;;;;;;24.83;52.10;97670.72;5075017;28;20028;-75
2023/06/30 08:18:06;;;;;;;7.68;6.68;;;;;;;25.40;52.53;97676.66;5066021;28;20033;-75
2023/06/30 08:20:32;;;;;;;10.73;7.80;;;;;;;24.99;52.63;97674.31;5067283;28;20028;-74
2023/06/30 08:22:57;;;;;;;8.25;6.05;;;;;;;25.49;51.93;97682.00;5067590;28;20032;-74
2023/06/30 08:25:24;;;;;;;9.18;6.65;;;;;;;25.16;52.70;97680.31;5071598;28;20060;-74
2023/06/30 08:27:49;;;;;;;10.40;6.90;;;;;;;24.71;50.44;97683.31;5062817;28;20123;-74
2023/06/30 08:30:15;;;;;;;11.85;6.82;;;;;;;25.50;49.76;97670.66;5043926;28;20052;-74
2023/06/30 08:32:40;;;;;;;90.88;13.35;;;;;;;25.91;49.85;97672.88;5053633;28;20044;-75
2023/06/30 08:35:06;;;;;;;8.63;5.68;;;;;;;26.63;48.35;97670.63;5069415;28;20024;-74
2023/06/30 08:37:31;;;;;;;8.85;5.40;;;;;;;25.17;49.71;97675.63;5056818;28;20098;-74
2023/06/30 08:39:57;;;;;;;11.23;7.63;;;;;;;25.51;49.34;97674.22;5073450;28;20024;-74
2023/06/30 08:42:27;;;;;;;9.13;7.40;;;;;;;25.04;49.68;97677.63;5063213;28;20040;-74
2023/06/30 08:44:53;;;;;;;8.15;4.63;;;;;;;25.41;49.48;97670.00;5061089;28;20040;-74
2023/06/30 08:47:20;;;;;;;5.72;4.55;;;;;;;25.29;49.35;97668.09;5064800;28;20138;-74
2023/06/30 08:49:48;;;;;;;7.10;4.82;;;;;;;25.82;47.77;97669.50;5070291;28;20533;-75
2023/06/30 08:52:14;;;;;;;9.52;6.57;;;;;;;26.46;45.57;97666.34;5064269;28;20029;-75
2023/06/30 08:54:40;;;;;;;11.05;6.55;;;;;;;25.90;48.70;97660.25;5053436;28;20036;-75
2023/06/30 08:57:05;;;;;;;8.63;6.03;;;;;;;25.13;48.58;97669.22;5064432;28;20019;-74
2023/06/30 08:59:31;;;;;;;9.65;6.40;;;;;;;25.03;48.09;97667.75;5056458;28;20044;-74
2023/06/30 09:01:57;;;;;;;9.02;4.53;;;;;;;25.36;48.01;97661.97;5064706;28;20035;-74
2023/06/30 09:04:23;;;;;;;5.97;4.75;;;;;;;25.24;48.27;97665.59;5052834;28;20037;-75
2023/06/30 09:06:49;;;;;;;5.90;4.35;;;;;;;25.76;47.56;97668.19;5063278;28;20032;-75
2023/06/30 09:09:35;;;;;;;9.07;6.38;;;;;;;25.67;47.31;97672.28;5069596;28;20040;-75
2023/06/30 09:12:00;;;;;;;9.43;6.55;;;;;;;25.56;48.25;97677.50;5066228;28;20036;-74
2023/06/30 09:14:31;;;;;;;7.20;6.18;;;;;;;25.64;48.10;97673.78;5059375;28;20044;-75
2023/06/30 09:16:57;;;;;;;7.90;6.38;;;;;;;26.57;46.56;97669.31;5056570;28;20111;-75
2023/06/30 09:19:22;;;;;;;9.82;6.80;;;;;;;27.15;45.89;97668.22;5056388;28;20024;-75
2023/06/30 09:21:49;;;;;;;8.60;6.72;;;;;;;28.03;43.37;97666.28;5072502;28;20040;-74
2023/06/30 09:24:15;;;;;;;8.00;6.90;;;;;;;26.45;45.76;97663.91;5059630;28;20489;-74
2023/06/30 09:26:40;;;;;;;9.38;7.15;;;;;;;27.44;45.89;97660.50;5072798;28;20032;-74
2023/06/30 09:29:09;;;;;;;9.38;7.25;;;;;;;28.20;42.68;97659.41;5067074;28;20029;-74
2023/06/30 09:31:35;;;;;;;8.15;6.97;;;;;;;26.43;44.83;97660.72;5052576;28;20040;-74
2023/06/30 09:34:12;;;;;;;8.90;7.00;;;;;;;27.40;43.42;97655.69;5053563;28;20021;-74
2023/06/30 09:36:47;;;;;;;10.60;7.30;;;;;;;27.12;45.05;97655.09;5066000;28;20032;-74
2023/06/30 09:39:13;;;;;;;11.98;7.28;;;;;;;27.02;44.78;97650.19;5052598;28;20033;-74
2023/06/30 09:41:41;;;;;;;8.88;7.28;;;;;;;27.32;44.94;97642.88;5068933;28;20035;-74
2023/06/30 09:44:09;;;;;;;10.95;7.15;;;;;;;26.81;45.67;97654.47;5052054;28;20048;-74
2023/06/30 09:46:34;;;;;;;8.93;8.02;;;;;;;26.65;46.39;97646.22;5066163;28;20025;-74
2023/06/30 09:49:04;;;;;;;8.48;7.30;;;;;;;26.32;46.93;97654.16;5062941;28;20040;-74
2023/06/30 09:51:31;;;;;;;10.43;7.40;;;;;;;25.96;45.90;97663.53;5060031;28;20052;-74
2023/06/30 09:53:57;;;;;;;10.70;7.45;;;;;;;25.53;47.49;97658.91;5060533;28;20036;-75
2023/06/30 09:56:23;;;;;;;10.68;7.90;;;;;;;25.75;46.76;97655.53;5065672;28;20033;-74
2023/06/30 09:58:50;;;;;;;9.70;8.27;;;;;;;25.97;47.72;97649.41;5063332;28;20036;-74
2023/06/30 10:01:20;;;;;;;11.00;8.13;;;;;;;26.15;48.20;97649.03;5051916;28;20536;-75
2023/06/30 10:03:50;;;;;;;10.93;7.63;;;;;;;26.25;47.05;97641.00;5063781;28;20040;-75
2023/06/30 10:06:21;;;;;;;9.38;8.05;;;;;;;26.15;47.14;97646.25;5066100;28;20029;-74
2023/06/30 10:08:48;;;;;;;8.77;7.75;;;;;;;26.66;46.84;97636.75;5048635;28;20068;-74
2023/06/30 10:11:14;;;;;;;11.13;9.05;;;;;;;27.02;44.75;97643.84;5059045;28;20107;-74
2023/06/30 10:13:41;;;;;;;8.70;7.25;;;;;;;26.35;45.75;97647.94;5055027;28;20139;-73
2023/06/30 10:16:07;;;;;;;8.23;6.90;;;;;;;26.88;44.59;97644.38;5064484;28;20037;-74
2023/06/30 10:18:35;;;;;;;9.45;7.25;;;;;;;26.40;45.98;97645.66;5035106;28;20044;-74
2023/06/30 10:21:01;;;;;;;9.73;8.07;;;;;;;27.02;44.94;97650.19;5064076;28;20070;-74
2023/06/30 10:23:27;;;;;;;10.38;7.80;;;;;;;25.96;47.39;97652.50;5066283;28;20036;-74
2023/06/30 10:25:53;;;;;;;11.15;8.30;;;;;;;26.41;47.04;97646.47;5059183;28;20036;-74
2023/06/30 10:28:19;;;;;;;12.05;8.50;;;;;;;26.84;46.78;97648.22;5057006;28;20499;-74
2023/06/30 10:30:44;;;;;;;10.75;8.40;;;;;;;26.87;46.28;97631.72;5051501;28;20051;-74
2023/06/30 10:33:10;;;;;;;10.23;8.13;;;;;;;26.30;47.39;97639.91;5064509;28;20498;-75
2023/06/30 10:35:35;;;;;;;11.82;8.23;;;;;;;27.02;46.40;97628.06;5059289;28;20463;-74
2023/06/30 10:38:01;;;;;;;10.68;8.88;;;;;;;27.06;46.16;97633.66;5054584;28;20055;-75
2023/06/30 10:40:27;;;;;;;10.27;8.48;;;;;;;27.07;44.75;97635.28;5064650;28;20025;-74
2023/06/30 10:42:54;;;;;;;11.38;9.07;;;;;;;27.95;43.27;97618.28;5064531;28;20036;-74
2023/06/30 10:45:20;;;;;;;9.82;7.97;;;;;;;27.45;44.49;97624.16;5041452;28;20123;-74
2023/06/30 10:47:50;;;;;;;12.25;8.32;;;;;;;27.39;45.12;97631.97;5072710;28;20060;-74
2023/06/30 10:50:16;;;;;;;10.43;8.45;;;;;;;26.40;47.89;97628.28;5054819;28;20090;-74
2023/06/30 10:53:07;;;;;;;10.30;7.85;;;;;;;27.16;45.41;97614.53;5064237;28;20028;-75
2023/06/30 10:55:33;;;;;;;12.63;8.90;;;;;;;26.89;45.85;97612.78;5059449;28;20478;-74
2023/06/30 10:58:02;;;;;;;11.35;8.80;;;;;;;26.98;45.11;97618.88;5057788;28;20078;-75
2023/06/30 11:00:31;;;;;;;11.45;8.38;;;;;;;27.02;45.66;97617.00;5043772;28;20045;-75
2023/06/30 11:02:57;;;;;;;10.52;7.13;;;;;;;26.70;46.33;97615.53;5049411;28;20120;-74
2023/06/30 11:05:30;;;;;;;12.77;8.35;;;;;;;27.07;44.93;97613.94;5079105;28;20470;-74
2023/06/30 11:08:02;;;;;;;12.95;8.38;;;;;;;26.86;46.36;97619.06;5055085;28;20063;-74
2023/06/30 11:10:34;;;;;;;14.05;8.48;;;;;;;26.45;46.41;97608.69;5052076;28;20060;-75
2023/06/30 11:13:09;;;;;;;12.57;8.80;;;;;;;26.22;47.37;97616.06;5058355;28;20064;-74
2023/06/30 11:15:41;;;;;;;14.87;9.33;;;;;;;26.66;47.20;97609.13;5056291;28;20033;-74
2023/06/30 11:18:14;;;;;;;15.15;8.90;;;;;;;27.18;47.40;97608.63;5051851;28;20048;-74
2023/06/30 11:20:59;;;;;;;12.32;8.70;;;;;;;26.59;47.05;97608.97;5047264;28;20035;-75
2023/06/30 11:23:28;;;;;;;11.45;9.20;;;;;;;27.05;46.51;97599.69;5063429;28;20033;-74
2023/06/30 11:25:57;;;;;;;10.75;9.13;;;;;;;26.29;47.99;97610.69;5050164;28;20033;-74
2023/06/30 11:28:26;;;;;;;10.30;8.93;;;;;;;26.85;47.55;97600.88;5069453;28;20561;-74